sensor_id;sensor_type;location;lat;lon;timestamp;P1;durP1;ratioP1;P2;durP2;ratioP2
15528;SDS011;7866;52.280;9.500;2023-10-19T00:04:15;13.63;;;12.23;;
15528;SDS011;7866;52.280;9.500;2023-10-19T00:09:16;14.17;;;12.50;;
15528;SDS011;7866;52.280;9.500;2023-10-19T00:14:20;13.27;;;11.93;;
15528;SDS011;7866;52.280;9.500;2023-10-19T00:19:23;14.47;;;12.97;;
15528;SDS011;7866;52.280;9.500;2023-10-19T00:24:28;14.00;;;12.53;;
15528;SDS011;7866;52.280;9.500;2023-10-19T00:29:31;14.03;;;12.63;;
15528;SDS011;7866;52.280;9.500;2023-10-19T00:34:41;14.07;;;12.77;;
15528;SDS011;7866;52.280;9.500;2023-10-19T00:39:50;14.47;;;12.90;;
15528;SDS011;7866;52.280;9.500;2023-10-19T00:44:54;14.00;;;12.60;;
15528;SDS011;7866;52.280;9.500;2023-10-19T00:50:04;14.77;;;13.27;;
15528;SDS011;7866;52.280;9.500;2023-10-19T00:55:06;14.93;;;13.00;;
15528;SDS011;7866;52.280;9.500;2023-10-19T01:00:09;13.63;;;12.23;;
15528;SDS011;7866;52.280;9.500;2023-10-19T01:05:14;15.70;;;13.60;;
15528;SDS011;7866;52.280;9.500;2023-10-19T01:10:21;14.10;;;12.70;;
15528;SDS011;7866;52.280;9.500;2023-10-19T01:15:24;15.03;;;13.53;;
15528;SDS011;7866;52.280;9.500;2023-10-19T01:20:31;15.87;;;14.17;;
15528;SDS011;7866;52.280;9.500;2023-10-19T01:25:50;15.27;;;13.77;;
15528;SDS011;7866;52.280;9.500;2023-10-19T01:30:59;14.97;;;13.47;;
15528;SDS011;7866;52.280;9.500;2023-10-19T01:36:06;17.30;;;14.50;;
15528;SDS011;7866;52.280;9.500;2023-10-19T01:41:27;16.30;;;14.70;;
15528;SDS011;7866;52.280;9.500;2023-10-19T01:46:30;17.07;;;15.20;;
15528;SDS011;7866;52.280;9.500;2023-10-19T01:51:34;16.07;;;14.37;;
15528;SDS011;7866;52.280;9.500;2023-10-19T01:56:39;16.17;;;14.50;;
15528;SDS011;7866;52.280;9.500;2023-10-19T02:01:43;16.70;;;15.00;;
15528;SDS011;7866;52.280;9.500;2023-10-19T02:06:46;16.53;;;14.83;;
15528;SDS011;7866;52.280;9.500;2023-10-19T02:11:50;16.63;;;15.03;;
15528;SDS011;7866;52.280;9.500;2023-10-19T02:16:56;16.50;;;14.80;;
15528;SDS011;7866;52.280;9.500;2023-10-19T02:22:00;15.53;;;13.90;;
15528;SDS011;7866;52.280;9.500;2023-10-19T02:27:06;16.90;;;15.20;;
15528;SDS011;7866;52.280;9.500;2023-10-19T02:32:09;16.77;;;15.07;;
15528;SDS011;7866;52.280;9.500;2023-10-19T02:37:11;17.70;;;15.97;;
15528;SDS011;7866;52.280;9.500;2023-10-19T02:42:14;18.23;;;16.33;;
15528;SDS011;7866;52.280;9.500;2023-10-19T02:47:17;18.07;;;16.30;;
15528;SDS011;7866;52.280;9.500;2023-10-19T02:52:19;18.20;;;16.30;;
15528;SDS011;7866;52.280;9.500;2023-10-19T02:57:22;19.30;;;17.40;;
15528;SDS011;7866;52.280;9.500;2023-10-19T03:02:24;17.40;;;15.73;;
15528;SDS011;7866;52.280;9.500;2023-10-19T03:07:26;18.30;;;16.23;;
15528;SDS011;7866;52.280;9.500;2023-10-19T03:12:29;16.13;;;14.57;;
15528;SDS011;7866;52.280;9.500;2023-10-19T03:17:32;17.70;;;15.80;;
15528;SDS011;7866;52.280;9.500;2023-10-19T03:22:34;16.10;;;14.50;;
15528;SDS011;7866;52.280;9.500;2023-10-19T03:27:37;15.87;;;14.43;;
15528;SDS011;7866;52.280;9.500;2023-10-19T03:32:38;14.50;;;13.20;;
15528;SDS011;7866;52.280;9.500;2023-10-19T03:37:41;15.40;;;14.00;;
15528;SDS011;7866;52.280;9.500;2023-10-19T03:42:44;14.07;;;12.80;;
15528;SDS011;7866;52.280;9.500;2023-10-19T03:47:47;14.70;;;13.27;;
15528;SDS011;7866;52.280;9.500;2023-10-19T03:52:50;14.57;;;13.17;;
15528;SDS011;7866;52.280;9.500;2023-10-19T03:57:53;14.47;;;13.17;;
15528;SDS011;7866;52.280;9.500;2023-10-19T04:02:55;14.10;;;12.80;;
15528;SDS011;7866;52.280;9.500;2023-10-19T04:07:58;14.43;;;13.03;;
15528;SDS011;7866;52.280;9.500;2023-10-19T04:13:02;14.53;;;13.23;;
15528;SDS011;7866;52.280;9.500;2023-10-19T04:18:04;12.10;;;11.10;;
15528;SDS011;7866;52.280;9.500;2023-10-19T04:23:11;13.47;;;12.17;;
15528;SDS011;7866;52.280;9.500;2023-10-19T04:28:16;12.90;;;11.80;;
15528;SDS011;7866;52.280;9.500;2023-10-19T04:33:22;13.07;;;11.90;;
15528;SDS011;7866;52.280;9.500;2023-10-19T04:38:27;11.17;;;10.17;;
15528;SDS011;7866;52.280;9.500;2023-10-19T04:43:32;11.37;;;10.37;;
15528;SDS011;7866;52.280;9.500;2023-10-19T04:48:33;10.80;;;9.83;;
15528;SDS011;7866;52.280;9.500;2023-10-19T04:53:36;10.00;;;9.10;;
15528;SDS011;7866;52.280;9.500;2023-10-19T04:58:39;9.30;;;8.50;;
15528;SDS011;7866;52.280;9.500;2023-10-19T05:03:41;7.70;;;7.10;;
15528;SDS011;7866;52.280;9.500;2023-10-19T05:08:43;7.83;;;7.17;;
15528;SDS011;7866;52.280;9.500;2023-10-19T05:13:48;6.57;;;6.07;;
15528;SDS011;7866;52.280;9.500;2023-10-19T05:18:50;6.80;;;6.30;;
15528;SDS011;7866;52.280;9.500;2023-10-19T05:23:52;6.37;;;5.87;;
15528;SDS011;7866;52.280;9.500;2023-10-19T05:28:55;5.77;;;5.37;;
15528;SDS011;7866;52.280;9.500;2023-10-19T05:33:57;6.20;;;5.70;;
15528;SDS011;7866;52.280;9.500;2023-10-19T05:38:58;5.43;;;5.03;;
15528;SDS011;7866;52.280;9.500;2023-10-19T05:44:01;5.50;;;5.10;;
15528;SDS011;7866;52.280;9.500;2023-10-19T05:49:04;5.90;;;5.50;;
15528;SDS011;7866;52.280;9.500;2023-10-19T05:54:06;6.40;;;5.90;;
15528;SDS011;7866;52.280;9.500;2023-10-19T05:59:10;6.73;;;6.23;;
15528;SDS011;7866;52.280;9.500;2023-10-19T06:04:11;6.90;;;6.33;;
15528;SDS011;7866;52.280;9.500;2023-10-19T06:09:13;7.13;;;6.53;;
15528;SDS011;7866;52.280;9.500;2023-10-19T06:14:17;6.77;;;6.20;;
15528;SDS011;7866;52.280;9.500;2023-10-19T06:19:19;7.50;;;6.90;;
15528;SDS011;7866;52.280;9.500;2023-10-19T06:24:20;7.50;;;6.90;;
15528;SDS011;7866;52.280;9.500;2023-10-19T06:29:24;7.17;;;6.57;;
15528;SDS011;7866;52.280;9.500;2023-10-19T06:34:28;8.00;;;7.40;;
15528;SDS011;7866;52.280;9.500;2023-10-19T06:39:31;8.30;;;7.60;;
15528;SDS011;7866;52.280;9.500;2023-10-19T06:44:34;8.13;;;7.43;;
15528;SDS011;7866;52.280;9.500;2023-10-19T06:49:36;9.43;;;8.63;;
15528;SDS011;7866;52.280;9.500;2023-10-19T06:54:38;8.07;;;7.37;;
15528;SDS011;7866;52.280;9.500;2023-10-19T06:59:41;8.93;;;8.20;;
15528;SDS011;7866;52.280;9.500;2023-10-19T07:04:43;9.70;;;8.80;;
15528;SDS011;7866;52.280;9.500;2023-10-19T07:09:44;10.10;;;9.20;;
15528;SDS011;7866;52.280;9.500;2023-10-19T07:14:47;9.10;;;8.30;;
15528;SDS011;7866;52.280;9.500;2023-10-19T07:19:49;11.20;;;10.20;;
15528;SDS011;7866;52.280;9.500;2023-10-19T07:24:51;11.30;;;10.30;;
15528;SDS011;7866;52.280;9.500;2023-10-19T07:29:54;11.43;;;10.43;;
15528;SDS011;7866;52.280;9.500;2023-10-19T07:34:56;10.87;;;9.87;;
15528;SDS011;7866;52.280;9.500;2023-10-19T07:39:59;10.87;;;9.97;;
15528;SDS011;7866;52.280;9.500;2023-10-19T07:45:02;9.27;;;8.47;;
15528;SDS011;7866;52.280;9.500;2023-10-19T07:50:05;11.00;;;10.00;;
15528;SDS011;7866;52.280;9.500;2023-10-19T07:55:12;10.13;;;9.23;;
15528;SDS011;7866;52.280;9.500;2023-10-19T08:00:15;11.57;;;10.37;;
15528;SDS011;7866;52.280;9.500;2023-10-19T08:05:17;11.50;;;10.50;;
15528;SDS011;7866;52.280;9.500;2023-10-19T08:10:20;10.40;;;9.40;;
15528;SDS011;7866;52.280;9.500;2023-10-19T08:15:23;11.17;;;10.17;;
15528;SDS011;7866;52.280;9.500;2023-10-19T08:20:26;9.93;;;9.13;;
15528;SDS011;7866;52.280;9.500;2023-10-19T08:25:30;9.30;;;8.50;;
15528;SDS011;7866;52.280;9.500;2023-10-19T08:30:34;10.27;;;9.37;;
15528;SDS011;7866;52.280;9.500;2023-10-19T08:35:37;8.70;;;8.00;;
15528;SDS011;7866;52.280;9.500;2023-10-19T08:40:38;9.40;;;8.60;;
15528;SDS011;7866;52.280;9.500;2023-10-19T08:45:42;8.90;;;8.00;;
15528;SDS011;7866;52.280;9.500;2023-10-19T08:50:44;8.60;;;7.90;;
15528;SDS011;7866;52.280;9.500;2023-10-19T08:55:46;8.70;;;7.90;;
15528;SDS011;7866;52.280;9.500;2023-10-19T09:00:51;8.47;;;7.67;;
15528;SDS011;7866;52.280;9.500;2023-10-19T09:05:54;9.00;;;8.20;;
15528;SDS011;7866;52.280;9.500;2023-10-19T09:10:57;9.13;;;8.40;;
15528;SDS011;7866;52.280;9.500;2023-10-19T09:16:05;8.23;;;7.53;;
15528;SDS011;7866;52.280;9.500;2023-10-19T09:21:07;9.07;;;8.27;;
15528;SDS011;7866;52.280;9.500;2023-10-19T09:26:11;8.10;;;7.40;;
15528;SDS011;7866;52.280;9.500;2023-10-19T09:31:14;8.37;;;7.57;;
15528;SDS011;7866;52.280;9.500;2023-10-19T09:36:17;8.00;;;7.30;;
15528;SDS011;7866;52.280;9.500;2023-10-19T09:41:21;8.50;;;7.70;;
15528;SDS011;7866;52.280;9.500;2023-10-19T09:46:32;8.33;;;7.53;;
15528;SDS011;7866;52.280;9.500;2023-10-19T09:51:37;8.50;;;7.80;;
15528;SDS011;7866;52.280;9.500;2023-10-19T09:56:40;8.20;;;7.33;;
15528;SDS011;7866;52.280;9.500;2023-10-19T10:02:06;9.03;;;7.90;;
15528;SDS011;7866;52.280;9.500;2023-10-19T10:07:11;8.33;;;7.63;;
15528;SDS011;7866;52.280;9.500;2023-10-19T10:12:17;8.63;;;7.90;;
15528;SDS011;7866;52.280;9.500;2023-10-19T10:17:22;8.80;;;8.07;;
15528;SDS011;7866;52.280;9.500;2023-10-19T10:22:25;8.00;;;7.30;;
15528;SDS011;7866;52.280;9.500;2023-10-19T10:27:27;8.40;;;7.70;;
15528;SDS011;7866;52.280;9.500;2023-10-19T10:32:44;7.87;;;7.20;;
15528;SDS011;7866;52.280;9.500;2023-10-19T10:37:53;8.00;;;7.27;;
15528;SDS011;7866;52.280;9.500;2023-10-19T10:43:04;8.90;;;8.00;;
15528;SDS011;7866;52.280;9.500;2023-10-19T10:48:12;8.83;;;8.03;;
15528;SDS011;7866;52.280;9.500;2023-10-19T10:53:14;9.20;;;8.40;;
15528;SDS011;7866;52.280;9.500;2023-10-19T10:58:16;8.83;;;8.03;;
15528;SDS011;7866;52.280;9.500;2023-10-19T11:03:19;9.83;;;8.87;;
15528;SDS011;7866;52.280;9.500;2023-10-19T11:08:23;8.40;;;7.70;;
15528;SDS011;7866;52.280;9.500;2023-10-19T11:13:26;9.60;;;8.60;;
15528;SDS011;7866;52.280;9.500;2023-10-19T11:18:30;9.80;;;8.90;;
15528;SDS011;7866;52.280;9.500;2023-10-19T11:23:37;9.77;;;8.97;;
15528;SDS011;7866;52.280;9.500;2023-10-19T11:28:39;8.63;;;7.80;;
15528;SDS011;7866;52.280;9.500;2023-10-19T11:33:48;10.57;;;9.67;;
15528;SDS011;7866;52.280;9.500;2023-10-19T11:38:52;9.70;;;8.60;;
15528;SDS011;7866;52.280;9.500;2023-10-19T11:43:54;9.87;;;9.03;;
15528;SDS011;7866;52.280;9.500;2023-10-19T11:48:58;10.67;;;9.60;;
15528;SDS011;7866;52.280;9.500;2023-10-19T11:54:00;10.37;;;9.27;;
15528;SDS011;7866;52.280;9.500;2023-10-19T11:59:01;10.77;;;9.77;;
15528;SDS011;7866;52.280;9.500;2023-10-19T12:04:05;8.40;;;7.70;;
15528;SDS011;7866;52.280;9.500;2023-10-19T12:09:06;10.10;;;9.20;;
15528;SDS011;7866;52.280;9.500;2023-10-19T12:14:15;8.67;;;7.87;;
15528;SDS011;7866;52.280;9.500;2023-10-19T12:19:18;9.10;;;8.40;;
15528;SDS011;7866;52.280;9.500;2023-10-19T12:24:19;9.90;;;9.00;;
15528;SDS011;7866;52.280;9.500;2023-10-19T12:29:21;10.83;;;9.73;;
15528;SDS011;7866;52.280;9.500;2023-10-19T12:34:24;10.43;;;9.43;;
15528;SDS011;7866;52.280;9.500;2023-10-19T12:39:29;8.80;;;8.10;;
15528;SDS011;7866;52.280;9.500;2023-10-19T12:44:43;9.30;;;8.50;;
15528;SDS011;7866;52.280;9.500;2023-10-19T12:49:46;9.70;;;8.77;;
15528;SDS011;7866;52.280;9.500;2023-10-19T12:54:48;11.50;;;10.40;;
15528;SDS011;7866;52.280;9.500;2023-10-19T12:59:51;12.53;;;11.40;;
15528;SDS011;7866;52.280;9.500;2023-10-19T13:04:54;12.60;;;11.40;;
15528;SDS011;7866;52.280;9.500;2023-10-19T13:09:59;13.33;;;12.03;;
15528;SDS011;7866;52.280;9.500;2023-10-19T13:15:02;14.40;;;12.77;;
15528;SDS011;7866;52.280;9.500;2023-10-19T13:20:09;14.10;;;12.70;;
15528;SDS011;7866;52.280;9.500;2023-10-19T13:25:18;14.70;;;13.10;;
15528;SDS011;7866;52.280;9.500;2023-10-19T13:30:28;13.63;;;12.23;;
15528;SDS011;7866;52.280;9.500;2023-10-19T13:35:32;14.60;;;13.10;;
15528;SDS011;7866;52.280;9.500;2023-10-19T13:40:34;14.47;;;12.90;;
15528;SDS011;7866;52.280;9.500;2023-10-19T13:45:36;16.23;;;13.83;;
15528;SDS011;7866;52.280;9.500;2023-10-19T13:50:44;14.77;;;13.17;;
15528;SDS011;7866;52.280;9.500;2023-10-19T13:55:48;17.30;;;15.43;;
15528;SDS011;7866;52.280;9.500;2023-10-19T14:00:50;17.93;;;14.70;;
15528;SDS011;7866;52.280;9.500;2023-10-19T14:05:53;18.97;;;16.97;;
15528;SDS011;7866;52.280;9.500;2023-10-19T14:11:00;18.40;;;16.47;;
15528;SDS011;7866;52.280;9.500;2023-10-19T14:16:04;19.97;;;16.73;;
15528;SDS011;7866;52.280;9.500;2023-10-19T14:21:13;17.00;;;15.20;;
15528;SDS011;7866;52.280;9.500;2023-10-19T14:26:15;23.33;;;17.03;;
15528;SDS011;7866;52.280;9.500;2023-10-19T14:31:17;17.13;;;15.33;;
15528;SDS011;7866;52.280;9.500;2023-10-19T14:36:21;19.67;;;17.43;;
15528;SDS011;7866;52.280;9.500;2023-10-19T14:41:23;21.40;;;18.27;;
15528;SDS011;7866;52.280;9.500;2023-10-19T14:46:24;21.00;;;17.80;;
15528;SDS011;7866;52.280;9.500;2023-10-19T14:51:30;20.13;;;16.67;;
15528;SDS011;7866;52.280;9.500;2023-10-19T14:56:32;23.10;;;18.53;;
15528;SDS011;7866;52.280;9.500;2023-10-19T15:01:33;20.47;;;17.63;;
15528;SDS011;7866;52.280;9.500;2023-10-19T15:06:37;21.00;;;17.87;;
15528;SDS011;7866;52.280;9.500;2023-10-19T15:11:38;20.67;;;18.40;;
15528;SDS011;7866;52.280;9.500;2023-10-19T15:16:40;19.23;;;16.70;;
15528;SDS011;7866;52.280;9.500;2023-10-19T15:21:43;20.10;;;16.60;;
15528;SDS011;7866;52.280;9.500;2023-10-19T15:26:45;22.03;;;17.97;;
15528;SDS011;7866;52.280;9.500;2023-10-19T15:31:47;19.73;;;15.50;;
15528;SDS011;7866;52.280;9.500;2023-10-19T15:36:50;19.60;;;15.93;;
15528;SDS011;7866;52.280;9.500;2023-10-19T15:41:52;19.30;;;16.87;;
15528;SDS011;7866;52.280;9.500;2023-10-19T15:46:54;17.77;;;14.57;;
15528;SDS011;7866;52.280;9.500;2023-10-19T15:51:57;19.83;;;15.77;;
15528;SDS011;7866;52.280;9.500;2023-10-19T15:56:58;20.20;;;16.10;;
15528;SDS011;7866;52.280;9.500;2023-10-19T16:02:00;20.30;;;15.57;;
15528;SDS011;7866;52.280;9.500;2023-10-19T16:07:03;19.13;;;15.00;;
15528;SDS011;7866;52.280;9.500;2023-10-19T16:12:05;20.67;;;16.43;;
15528;SDS011;7866;52.280;9.500;2023-10-19T16:17:08;18.80;;;14.93;;
15528;SDS011;7866;52.280;9.500;2023-10-19T16:22:11;21.20;;;17.30;;
15528;SDS011;7866;52.280;9.500;2023-10-19T16:27:13;19.50;;;15.63;;
15528;SDS011;7866;52.280;9.500;2023-10-19T16:32:16;21.27;;;17.07;;
15528;SDS011;7866;52.280;9.500;2023-10-19T16:37:20;21.33;;;17.07;;
15528;SDS011;7866;52.280;9.500;2023-10-19T16:42:23;22.53;;;18.47;;
15528;SDS011;7866;52.280;9.500;2023-10-19T16:47:24;22.93;;;17.93;;
15528;SDS011;7866;52.280;9.500;2023-10-19T16:52:27;28.90;;;19.37;;
15528;SDS011;7866;52.280;9.500;2023-10-19T16:57:29;26.30;;;19.20;;
15528;SDS011;7866;52.280;9.500;2023-10-19T17:02:31;27.10;;;19.67;;
15528;SDS011;7866;52.280;9.500;2023-10-19T17:07:34;29.97;;;21.63;;
15528;SDS011;7866;52.280;9.500;2023-10-19T17:12:35;28.17;;;21.33;;
15528;SDS011;7866;52.280;9.500;2023-10-19T17:17:37;42.90;;;24.17;;
15528;SDS011;7866;52.280;9.500;2023-10-19T17:22:40;42.33;;;25.20;;
15528;SDS011;7866;52.280;9.500;2023-10-19T17:27:43;36.63;;;24.00;;
15528;SDS011;7866;52.280;9.500;2023-10-19T17:32:44;52.93;;;24.57;;
15528;SDS011;7866;52.280;9.500;2023-10-19T17:37:47;51.70;;;25.23;;
15528;SDS011;7866;52.280;9.500;2023-10-19T17:42:49;38.70;;;23.57;;
15528;SDS011;7866;52.280;9.500;2023-10-19T17:47:52;46.63;;;23.33;;
15528;SDS011;7866;52.280;9.500;2023-10-19T17:52:55;85.30;;;25.30;;
15528;SDS011;7866;52.280;9.500;2023-10-19T17:57:56;50.13;;;23.47;;
15528;SDS011;7866;52.280;9.500;2023-10-19T18:02:58;52.10;;;24.27;;
15528;SDS011;7866;52.280;9.500;2023-10-19T18:08:01;64.33;;;25.13;;
15528;SDS011;7866;52.280;9.500;2023-10-19T18:13:03;48.20;;;24.23;;
15528;SDS011;7866;52.280;9.500;2023-10-19T18:18:05;62.90;;;24.87;;
15528;SDS011;7866;52.280;9.500;2023-10-19T18:23:09;37.87;;;23.33;;
15528;SDS011;7866;52.280;9.500;2023-10-19T18:28:11;31.40;;;23.60;;
15528;SDS011;7866;52.280;9.500;2023-10-19T18:33:12;62.47;;;24.30;;
15528;SDS011;7866;52.280;9.500;2023-10-19T18:38:15;30.83;;;22.63;;
15528;SDS011;7866;52.280;9.500;2023-10-19T18:43:17;38.40;;;22.23;;
15528;SDS011;7866;52.280;9.500;2023-10-19T18:48:18;44.03;;;21.77;;
15528;SDS011;7866;52.280;9.500;2023-10-19T18:53:22;34.33;;;22.80;;
15528;SDS011;7866;52.280;9.500;2023-10-19T18:58:23;46.57;;;23.00;;
15528;SDS011;7866;52.280;9.500;2023-10-19T19:03:26;38.30;;;21.63;;
15528;SDS011;7866;52.280;9.500;2023-10-19T19:08:29;41.40;;;22.77;;
15528;SDS011;7866;52.280;9.500;2023-10-19T19:13:32;31.67;;;22.40;;
15528;SDS011;7866;52.280;9.500;2023-10-19T19:18:33;39.87;;;22.20;;
15528;SDS011;7866;52.280;9.500;2023-10-19T19:23:37;40.83;;;22.20;;
15528;SDS011;7866;52.280;9.500;2023-10-19T19:28:40;36.00;;;22.20;;
15528;SDS011;7866;52.280;9.500;2023-10-19T19:33:44;31.53;;;21.37;;
15528;SDS011;7866;52.280;9.500;2023-10-19T19:38:47;28.23;;;20.30;;
15528;SDS011;7866;52.280;9.500;2023-10-19T19:43:49;26.37;;;19.60;;
15528;SDS011;7866;52.280;9.500;2023-10-19T19:48:52;32.57;;;18.90;;
15528;SDS011;7866;52.280;9.500;2023-10-19T19:53:55;24.80;;;18.80;;
15528;SDS011;7866;52.280;9.500;2023-10-19T19:58:56;28.30;;;19.13;;
15528;SDS011;7866;52.280;9.500;2023-10-19T20:04:02;33.20;;;19.03;;
15528;SDS011;7866;52.280;9.500;2023-10-19T20:09:06;28.63;;;19.10;;
15528;SDS011;7866;52.280;9.500;2023-10-19T20:14:11;22.17;;;16.87;;
15528;SDS011;7866;52.280;9.500;2023-10-19T20:19:12;24.07;;;17.93;;
15528;SDS011;7866;52.280;9.500;2023-10-19T20:24:17;21.37;;;16.73;;
15528;SDS011;7866;52.280;9.500;2023-10-19T20:29:19;28.63;;;16.80;;
15528;SDS011;7866;52.280;9.500;2023-10-19T20:34:20;24.23;;;17.10;;
15528;SDS011;7866;52.280;9.500;2023-10-19T20:39:23;22.77;;;16.33;;
15528;SDS011;7866;52.280;9.500;2023-10-19T20:44:25;23.63;;;16.73;;
15528;SDS011;7866;52.280;9.500;2023-10-19T20:49:30;20.30;;;14.77;;
15528;SDS011;7866;52.280;9.500;2023-10-19T20:54:33;21.20;;;15.17;;
15528;SDS011;7866;52.280;9.500;2023-10-19T20:59:36;19.63;;;14.13;;
15528;SDS011;7866;52.280;9.500;2023-10-19T21:04:38;20.33;;;14.53;;
15528;SDS011;7866;52.280;9.500;2023-10-19T21:09:41;17.27;;;13.80;;
15528;SDS011;7866;52.280;9.500;2023-10-19T21:14:43;18.20;;;14.07;;
15528;SDS011;7866;52.280;9.500;2023-10-19T21:19:45;19.63;;;13.70;;
15528;SDS011;7866;52.280;9.500;2023-10-19T21:24:48;18.80;;;12.77;;
15528;SDS011;7866;52.280;9.500;2023-10-19T21:29:49;16.23;;;13.07;;
15528;SDS011;7866;52.280;9.500;2023-10-19T21:34:51;14.73;;;12.23;;
15528;SDS011;7866;52.280;9.500;2023-10-19T21:39:54;17.73;;;11.87;;
15528;SDS011;7866;52.280;9.500;2023-10-19T21:44:57;14.47;;;11.47;;
15528;SDS011;7866;52.280;9.500;2023-10-19T21:49:58;15.70;;;12.07;;
15528;SDS011;7866;52.280;9.500;2023-10-19T21:55:01;12.83;;;11.07;;
15528;SDS011;7866;52.280;9.500;2023-10-19T22:00:05;13.40;;;10.87;;
15528;SDS011;7866;52.280;9.500;2023-10-19T22:05:12;14.93;;;11.53;;
15528;SDS011;7866;52.280;9.500;2023-10-19T22:10:16;12.97;;;10.83;;
15528;SDS011;7866;52.280;9.500;2023-10-19T22:15:19;12.80;;;10.30;;
15528;SDS011;7866;52.280;9.500;2023-10-19T22:20:21;16.03;;;12.43;;
15528;SDS011;7866;52.280;9.500;2023-10-19T22:25:24;14.63;;;11.77;;
15528;SDS011;7866;52.280;9.500;2023-10-19T22:30:26;13.20;;;10.63;;
15528;SDS011;7866;52.280;9.500;2023-10-19T22:35:27;19.40;;;11.17;;
15528;SDS011;7866;52.280;9.500;2023-10-19T22:40:30;12.70;;;10.90;;
15528;SDS011;7866;52.280;9.500;2023-10-19T22:45:32;12.10;;;10.40;;
15528;SDS011;7866;52.280;9.500;2023-10-19T22:50:34;15.57;;;10.70;;
15528;SDS011;7866;52.280;9.500;2023-10-19T22:55:37;11.67;;;9.80;;
15528;SDS011;7866;52.280;9.500;2023-10-19T23:00:38;11.77;;;9.47;;
15528;SDS011;7866;52.280;9.500;2023-10-19T23:05:40;12.43;;;9.93;;
15528;SDS011;7866;52.280;9.500;2023-10-19T23:10:45;10.83;;;9.03;;
15528;SDS011;7866;52.280;9.500;2023-10-19T23:15:47;12.93;;;10.00;;
15528;SDS011;7866;52.280;9.500;2023-10-19T23:20:51;11.27;;;9.83;;
15528;SDS011;7866;52.280;9.500;2023-10-19T23:25:57;11.10;;;9.70;;
15528;SDS011;7866;52.280;9.500;2023-10-19T23:31:00;10.00;;;9.00;;
15528;SDS011;7866;52.280;9.500;2023-10-19T23:36:05;12.23;;;9.57;;
15528;SDS011;7866;52.280;9.500;2023-10-19T23:41:08;13.43;;;10.70;;
15528;SDS011;7866;52.280;9.500;2023-10-19T23:46:09;11.23;;;9.43;;
15528;SDS011;7866;52.280;9.500;2023-10-19T23:51:11;11.27;;;10.00;;
15528;SDS011;7866;52.280;9.500;2023-10-19T23:56:14;14.53;;;10.93;;
